sensor_id;sensor_type;location;lat;lon;timestamp;P1;durP1;ratioP1;P2;durP2;ratioP2
1753;SDS011;58380;48.312;9.246;2023-02-13T07:23:59;34.13;;;15.10;;
1753;SDS011;58380;48.312;9.246;2023-02-13T07:26:25;34.33;;;16.40;;
1753;SDS011;58380;48.312;9.246;2023-02-13T07:28:51;38.20;;;17.20;;
1753;SDS011;58380;48.312;9.246;2023-02-13T07:31:18;34.33;;;13.73;;
1753;SDS011;58380;48.312;9.246;2023-02-13T07:33:46;32.20;;;13.18;;
1753;SDS011;58380;48.312;9.246;2023-02-13T07:36:13;31.85;;;13.35;;
1753;SDS011;58380;48.312;9.246;2023-02-13T07:38:39;42.60;;;15.88;;
1753;SDS011;58380;48.312;9.246;2023-02-13T07:41:04;27.27;;;10.90;;
1753;SDS011;58380;48.312;9.246;2023-02-13T07:43:30;24.10;;;9.67;;
1753;SDS011;58380;48.312;9.246;2023-02-13T07:46:01;23.43;;;9.37;;
1753;SDS011;58380;48.312;9.246;2023-02-13T07:48:28;18.92;;;9.43;;
1753;SDS011;58380;48.312;9.246;2023-02-13T07:50:58;22.20;;;10.85;;
1753;SDS011;58380;48.312;9.246;2023-02-13T07:53:26;18.58;;;8.68;;
1753;SDS011;58380;48.312;9.246;2023-02-13T07:55:52;18.98;;;8.32;;
1753;SDS011;58380;48.312;9.246;2023-02-13T07:58:17;26.03;;;9.23;;
1753;SDS011;58380;48.312;9.246;2023-02-13T08:00:42;19.43;;;9.00;;
1753;SDS011;58380;48.312;9.246;2023-02-13T08:03:08;23.30;;;9.50;;
1753;SDS011;58380;48.312;9.246;2023-02-13T08:05:34;29.02;;;12.18;;
1753;SDS011;58380;48.312;9.246;2023-02-13T08:08:00;26.40;;;11.55;;
1753;SDS011;58380;48.312;9.246;2023-02-13T08:10:26;19.90;;;7.60;;
1753;SDS011;58380;48.312;9.246;2023-02-13T08:13:10;19.67;;;8.77;;
1753;SDS011;58380;48.312;9.246;2023-02-13T08:15:38;14.88;;;8.48;;
1753;SDS011;58380;48.312;9.246;2023-02-13T08:18:04;18.52;;;7.78;;
1753;SDS011;58380;48.312;9.246;2023-02-13T08:20:30;18.42;;;7.70;;
1753;SDS011;58380;48.312;9.246;2023-02-13T08:23:01;17.92;;;7.50;;
1753;SDS011;58380;48.312;9.246;2023-02-13T08:25:28;14.77;;;7.85;;
1753;SDS011;58380;48.312;9.246;2023-02-13T08:27:54;21.40;;;8.93;;
1753;SDS011;58380;48.312;9.246;2023-02-13T08:30:23;19.52;;;8.77;;
1753;SDS011;58380;48.312;9.246;2023-02-13T08:32:48;15.97;;;8.13;;
1753;SDS011;58380;48.312;9.246;2023-02-13T08:35:14;18.30;;;7.77;;
1753;SDS011;58380;48.312;9.246;2023-02-13T08:37:39;21.17;;;9.00;;
1753;SDS011;58380;48.312;9.246;2023-02-13T08:40:05;24.00;;;9.47;;
1753;SDS011;58380;48.312;9.246;2023-02-13T08:42:34;18.63;;;8.05;;
1753;SDS011;58380;48.312;9.246;2023-02-13T08:47:26;18.75;;;8.52;;
1753;SDS011;58380;48.312;9.246;2023-02-13T08:49:52;23.23;;;10.17;;
1753;SDS011;58380;48.312;9.246;2023-02-13T08:54:43;16.98;;;8.73;;
1753;SDS011;58380;48.312;9.246;2023-02-13T08:57:08;17.10;;;7.90;;
1753;SDS011;58380;48.312;9.246;2023-02-13T08:59:34;18.77;;;8.27;;
1753;SDS011;58380;48.312;9.246;2023-02-13T09:01:59;17.50;;;8.93;;
1753;SDS011;58380;48.312;9.246;2023-02-13T09:04:25;19.87;;;9.20;;
1753;SDS011;58380;48.312;9.246;2023-02-13T09:06:50;23.60;;;10.63;;
1753;SDS011;58380;48.312;9.246;2023-02-13T09:09:15;16.57;;;8.37;;
1753;SDS011;58380;48.312;9.246;2023-02-13T09:11:41;18.90;;;8.60;;
1753;SDS011;58380;48.312;9.246;2023-02-13T09:14:06;26.00;;;12.23;;
1753;SDS011;58380;48.312;9.246;2023-02-13T09:16:32;20.13;;;9.70;;
1753;SDS011;58380;48.312;9.246;2023-02-13T09:18:57;12.90;;;7.40;;
1753;SDS011;58380;48.312;9.246;2023-02-13T09:21:23;15.80;;;8.53;;
1753;SDS011;58380;48.312;9.246;2023-02-13T09:23:48;16.42;;;7.93;;
1753;SDS011;58380;48.312;9.246;2023-02-13T09:26:15;15.80;;;7.30;;
1753;SDS011;58380;48.312;9.246;2023-02-13T09:28:43;15.93;;;8.02;;
1753;SDS011;58380;48.312;9.246;2023-02-13T09:31:13;14.18;;;7.30;;
1753;SDS011;58380;48.312;9.246;2023-02-13T09:33:41;13.95;;;7.85;;
1753;SDS011;58380;48.312;9.246;2023-02-13T09:36:16;13.85;;;7.78;;
1753;SDS011;58380;48.312;9.246;2023-02-13T09:38:46;13.10;;;7.50;;
1753;SDS011;58380;48.312;9.246;2023-02-13T09:41:23;14.63;;;7.28;;
1753;SDS011;58380;48.312;9.246;2023-02-13T09:43:57;14.15;;;7.47;;
1753;SDS011;58380;48.312;9.246;2023-02-13T09:46:29;13.85;;;7.07;;
1753;SDS011;58380;48.312;9.246;2023-02-13T09:49:00;12.57;;;6.55;;
1753;SDS011;58380;48.312;9.246;2023-02-13T09:51:33;15.43;;;7.20;;
1753;SDS011;58380;48.312;9.246;2023-02-13T09:56:47;14.60;;;7.20;;
1753;SDS011;58380;48.312;9.246;2023-02-13T10:16:47;10.75;;;6.15;;
1753;SDS011;58380;48.312;9.246;2023-02-13T10:22:12;13.02;;;6.50;;
1753;SDS011;58380;48.312;9.246;2023-02-13T10:28:12;15.48;;;7.82;;
1753;SDS011;58380;48.312;9.246;2023-02-13T10:30:53;14.50;;;8.18;;
1753;SDS011;58380;48.312;9.246;2023-02-13T10:33:29;15.40;;;7.93;;
1753;SDS011;58380;48.312;9.246;2023-02-13T10:36:14;13.88;;;7.15;;
1753;SDS011;58380;48.312;9.246;2023-02-13T10:38:54;12.95;;;7.15;;
1753;SDS011;58380;48.312;9.246;2023-02-13T11:04:59;11.85;;;6.60;;
1753;SDS011;58380;48.312;9.246;2023-02-13T11:07:39;12.98;;;7.03;;
1753;SDS011;58380;48.312;9.246;2023-02-13T11:10:12;14.35;;;7.40;;
1753;SDS011;58380;48.312;9.246;2023-02-13T11:12:43;15.18;;;7.80;;
1753;SDS011;58380;48.312;9.246;2023-02-13T11:15:20;12.57;;;6.97;;
1753;SDS011;58380;48.312;9.246;2023-02-13T11:17:56;13.82;;;7.18;;
1753;SDS011;58380;48.312;9.246;2023-02-13T11:20:34;12.25;;;6.70;;
1753;SDS011;58380;48.312;9.246;2023-02-13T11:23:31;13.93;;;6.68;;
1753;SDS011;58380;48.312;9.246;2023-02-13T11:26:05;12.70;;;6.85;;
1753;SDS011;58380;48.312;9.246;2023-02-13T11:28:37;13.85;;;7.65;;
1753;SDS011;58380;48.312;9.246;2023-02-13T11:31:20;13.35;;;7.63;;
1753;SDS011;58380;48.312;9.246;2023-02-13T11:33:56;14.68;;;7.45;;
1753;SDS011;58380;48.312;9.246;2023-02-13T11:36:41;11.50;;;6.18;;
1753;SDS011;58380;48.312;9.246;2023-02-13T11:39:16;13.40;;;6.37;;
1753;SDS011;58380;48.312;9.246;2023-02-13T11:41:45;12.02;;;6.45;;
1753;SDS011;58380;48.312;9.246;2023-02-13T11:44:22;13.07;;;6.78;;
1753;SDS011;58380;48.312;9.246;2023-02-13T11:46:53;12.40;;;6.60;;
1753;SDS011;58380;48.312;9.246;2023-02-13T11:49:44;11.25;;;6.40;;
1753;SDS011;58380;48.312;9.246;2023-02-13T11:52:25;13.60;;;7.28;;
1753;SDS011;58380;48.312;9.246;2023-02-13T11:54:58;13.23;;;7.00;;
1753;SDS011;58380;48.312;9.246;2023-02-13T11:57:58;12.18;;;7.05;;
1753;SDS011;58380;48.312;9.246;2023-02-13T12:00:44;12.38;;;6.68;;
1753;SDS011;58380;48.312;9.246;2023-02-13T12:05:58;11.68;;;6.82;;
1753;SDS011;58380;48.312;9.246;2023-02-13T12:11:01;14.52;;;7.30;;
1753;SDS011;58380;48.312;9.246;2023-02-13T12:13:47;15.43;;;6.75;;
1753;SDS011;58380;48.312;9.246;2023-02-13T12:19:01;13.00;;;7.57;;
1753;SDS011;58380;48.312;9.246;2023-02-13T12:21:35;14.23;;;7.53;;
1753;SDS011;58380;48.312;9.246;2023-02-13T12:24:22;15.20;;;7.63;;
1753;SDS011;58380;48.312;9.246;2023-02-13T12:27:11;12.82;;;7.18;;
1753;SDS011;58380;48.312;9.246;2023-02-13T12:36:08;15.85;;;9.02;;
1753;SDS011;58380;48.312;9.246;2023-02-13T12:41:44;14.32;;;7.70;;
1753;SDS011;58380;48.312;9.246;2023-02-13T12:53:46;16.58;;;7.70;;
1753;SDS011;58380;48.312;9.246;2023-02-13T13:02:06;16.23;;;8.20;;
1753;SDS011;58380;48.312;9.246;2023-02-13T13:07:58;16.15;;;7.47;;
1753;SDS011;58380;48.312;9.246;2023-02-13T13:14:09;12.02;;;6.70;;
1753;SDS011;58380;48.312;9.246;2023-02-13T13:16:56;16.25;;;7.20;;
1753;SDS011;58380;48.312;9.246;2023-02-13T13:19:51;17.35;;;9.10;;
1753;SDS011;58380;48.312;9.246;2023-02-13T13:22:37;16.80;;;8.73;;
1753;SDS011;58380;48.312;9.246;2023-02-13T13:28:07;19.30;;;9.60;;
1753;SDS011;58380;48.312;9.246;2023-02-13T13:30:41;15.63;;;8.30;;
1753;SDS011;58380;48.312;9.246;2023-02-13T13:33:13;20.42;;;9.60;;
1753;SDS011;58380;48.312;9.246;2023-02-13T13:35:48;15.70;;;8.00;;
1753;SDS011;58380;48.312;9.246;2023-02-13T13:50:26;18.15;;;8.60;;
1753;SDS011;58380;48.312;9.246;2023-02-13T14:01:27;16.98;;;8.40;;
1753;SDS011;58380;48.312;9.246;2023-02-13T14:03:58;15.02;;;7.65;;
1753;SDS011;58380;48.312;9.246;2023-02-13T14:11:52;15.25;;;7.80;;
1753;SDS011;58380;48.312;9.246;2023-02-13T14:16:52;12.68;;;7.03;;
1753;SDS011;58380;48.312;9.246;2023-02-13T14:19:24;14.93;;;8.10;;
1753;SDS011;58380;48.312;9.246;2023-02-13T14:22:24;17.48;;;8.27;;
1753;SDS011;58380;48.312;9.246;2023-02-13T14:24:49;15.70;;;8.40;;
1753;SDS011;58380;48.312;9.246;2023-02-13T14:27:23;16.88;;;8.30;;
1753;SDS011;58380;48.312;9.246;2023-02-13T14:30:01;17.48;;;8.18;;
1753;SDS011;58380;48.312;9.246;2023-02-13T14:32:31;16.45;;;8.27;;
1753;SDS011;58380;48.312;9.246;2023-02-13T14:35:05;17.65;;;8.65;;
1753;SDS011;58380;48.312;9.246;2023-02-13T14:37:50;17.23;;;8.52;;
1753;SDS011;58380;48.312;9.246;2023-02-13T14:42:57;16.90;;;8.07;;
1753;SDS011;58380;48.312;9.246;2023-02-13T14:45:55;16.98;;;8.27;;
1753;SDS011;58380;48.312;9.246;2023-02-13T14:48:32;17.45;;;8.55;;
1753;SDS011;58380;48.312;9.246;2023-02-13T14:51:03;15.52;;;7.60;;
1753;SDS011;58380;48.312;9.246;2023-02-13T14:53:50;17.52;;;8.73;;
1753;SDS011;58380;48.312;9.246;2023-02-13T14:56:20;18.20;;;8.18;;
1753;SDS011;58380;48.312;9.246;2023-02-13T14:58:49;18.60;;;8.93;;
1753;SDS011;58380;48.312;9.246;2023-02-13T15:01:30;17.25;;;8.27;;
1753;SDS011;58380;48.312;9.246;2023-02-13T15:04:09;19.33;;;8.38;;
1753;SDS011;58380;48.312;9.246;2023-02-13T15:06:41;13.38;;;7.10;;
1753;SDS011;58380;48.312;9.246;2023-02-13T15:09:15;17.98;;;8.75;;
1753;SDS011;58380;48.312;9.246;2023-02-13T15:14:30;14.80;;;7.22;;
1753;SDS011;58380;48.312;9.246;2023-02-13T15:17:18;15.75;;;8.38;;
1753;SDS011;58380;48.312;9.246;2023-02-13T15:19:51;17.55;;;8.38;;
1753;SDS011;58380;48.312;9.246;2023-02-13T15:22:23;14.65;;;7.60;;
1753;SDS011;58380;48.312;9.246;2023-02-13T15:24:57;17.58;;;8.48;;
1753;SDS011;58380;48.312;9.246;2023-02-13T15:27:27;20.25;;;8.70;;
1753;SDS011;58380;48.312;9.246;2023-02-13T15:30:31;16.60;;;8.07;;
1753;SDS011;58380;48.312;9.246;2023-02-13T15:35:25;19.73;;;9.07;;
1753;SDS011;58380;48.312;9.246;2023-02-13T15:37:52;22.38;;;9.20;;
1753;SDS011;58380;48.312;9.246;2023-02-13T15:42:53;16.58;;;8.00;;
1753;SDS011;58380;48.312;9.246;2023-02-13T15:45:21;19.23;;;9.02;;
1753;SDS011;58380;48.312;9.246;2023-02-13T15:47:50;16.35;;;8.27;;
1753;SDS011;58380;48.312;9.246;2023-02-13T15:50:33;15.10;;;7.93;;
1753;SDS011;58380;48.312;9.246;2023-02-13T15:53:03;17.83;;;8.00;;
1753;SDS011;58380;48.312;9.246;2023-02-13T15:55:37;15.65;;;7.50;;
1753;SDS011;58380;48.312;9.246;2023-02-13T15:58:03;16.80;;;7.93;;
1753;SDS011;58380;48.312;9.246;2023-02-13T16:00:30;21.70;;;9.95;;
1753;SDS011;58380;48.312;9.246;2023-02-13T16:03:00;19.92;;;9.48;;
1753;SDS011;58380;48.312;9.246;2023-02-13T16:05:31;17.77;;;8.68;;
1753;SDS011;58380;48.312;9.246;2023-02-13T16:08:19;20.02;;;9.13;;
1753;SDS011;58380;48.312;9.246;2023-02-13T16:13:56;22.67;;;9.93;;
1753;SDS011;58380;48.312;9.246;2023-02-13T16:16:28;23.85;;;10.20;;
1753;SDS011;58380;48.312;9.246;2023-02-13T16:21:59;20.60;;;9.45;;
1753;SDS011;58380;48.312;9.246;2023-02-13T16:24:31;27.20;;;9.98;;
1753;SDS011;58380;48.312;9.246;2023-02-13T16:26:57;28.50;;;11.27;;
1753;SDS011;58380;48.312;9.246;2023-02-13T16:29:23;26.60;;;11.30;;
1753;SDS011;58380;48.312;9.246;2023-02-13T16:31:52;20.40;;;9.75;;
1753;SDS011;58380;48.312;9.246;2023-02-13T16:34:29;20.08;;;9.93;;
1753;SDS011;58380;48.312;9.246;2023-02-13T16:36:55;21.05;;;10.63;;
1753;SDS011;58380;48.312;9.246;2023-02-13T16:39:25;26.08;;;10.88;;
1753;SDS011;58380;48.312;9.246;2023-02-13T16:41:54;24.15;;;8.85;;
1753;SDS011;58380;48.312;9.246;2023-02-13T16:44:22;27.98;;;8.68;;
1753;SDS011;58380;48.312;9.246;2023-02-13T16:46:57;22.10;;;8.48;;
1753;SDS011;58380;48.312;9.246;2023-02-13T16:49:32;49.17;;;10.80;;
1753;SDS011;58380;48.312;9.246;2023-02-13T16:52:08;29.17;;;9.27;;
1753;SDS011;58380;48.312;9.246;2023-02-13T17:02:30;41.78;;;11.13;;
1753;SDS011;58380;48.312;9.246;2023-02-13T17:07:33;47.40;;;10.73;;
1753;SDS011;58380;48.312;9.246;2023-02-13T17:12:51;42.13;;;10.32;;
1753;SDS011;58380;48.312;9.246;2023-02-13T17:15:21;30.65;;;11.23;;
1753;SDS011;58380;48.312;9.246;2023-02-13T17:17:48;34.17;;;11.80;;
1753;SDS011;58380;48.312;9.246;2023-02-13T17:22:43;29.52;;;10.52;;
1753;SDS011;58380;48.312;9.246;2023-02-13T17:25:19;29.25;;;11.85;;
1753;SDS011;58380;48.312;9.246;2023-02-13T17:27:53;22.83;;;10.38;;
1753;SDS011;58380;48.312;9.246;2023-02-13T17:30:36;43.88;;;13.07;;
1753;SDS011;58380;48.312;9.246;2023-02-13T17:33:02;31.07;;;9.80;;
1753;SDS011;58380;48.312;9.246;2023-02-13T17:35:38;35.25;;;10.05;;
1753;SDS011;58380;48.312;9.246;2023-02-13T17:38:04;27.77;;;10.13;;
1753;SDS011;58380;48.312;9.246;2023-02-13T17:40:31;30.75;;;8.85;;
1753;SDS011;58380;48.312;9.246;2023-02-13T17:42:57;32.87;;;10.20;;
1753;SDS011;58380;48.312;9.246;2023-02-13T17:45:27;27.38;;;8.82;;
1753;SDS011;58380;48.312;9.246;2023-02-13T17:47:55;45.03;;;9.10;;
1753;SDS011;58380;48.312;9.246;2023-02-13T17:50:24;37.97;;;9.23;;
1753;SDS011;58380;48.312;9.246;2023-02-13T17:52:53;40.78;;;9.20;;
1753;SDS011;58380;48.312;9.246;2023-02-13T17:57:48;47.95;;;10.07;;
1753;SDS011;58380;48.312;9.246;2023-02-13T18:00:16;34.20;;;9.00;;
1753;SDS011;58380;48.312;9.246;2023-02-13T18:02:44;34.85;;;9.57;;
1753;SDS011;58380;48.312;9.246;2023-02-13T18:05:12;29.77;;;9.70;;
1753;SDS011;58380;48.312;9.246;2023-02-13T18:07:40;36.35;;;10.60;;
1753;SDS011;58380;48.312;9.246;2023-02-13T18:10:07;30.50;;;10.30;;
1753;SDS011;58380;48.312;9.246;2023-02-13T18:12:38;33.80;;;9.82;;
1753;SDS011;58380;48.312;9.246;2023-02-13T18:15:04;24.65;;;8.73;;
1753;SDS011;58380;48.312;9.246;2023-02-13T18:17:30;27.73;;;10.50;;
1753;SDS011;58380;48.312;9.246;2023-02-13T18:19:56;51.70;;;11.93;;
1753;SDS011;58380;48.312;9.246;2023-02-13T18:22:22;21.83;;;10.93;;
1753;SDS011;58380;48.312;9.246;2023-02-13T18:24:48;25.77;;;9.70;;
1753;SDS011;58380;48.312;9.246;2023-02-13T18:27:15;27.23;;;10.50;;
1753;SDS011;58380;48.312;9.246;2023-02-13T18:29:41;37.15;;;10.45;;
1753;SDS011;58380;48.312;9.246;2023-02-13T18:32:07;26.92;;;10.10;;
1753;SDS011;58380;48.312;9.246;2023-02-13T18:34:35;45.53;;;11.05;;
1753;SDS011;58380;48.312;9.246;2023-02-13T18:37:03;24.17;;;12.25;;
1753;SDS011;58380;48.312;9.246;2023-02-13T18:39:30;52.55;;;16.83;;
1753;SDS011;58380;48.312;9.246;2023-02-13T18:41:55;33.60;;;12.45;;
1753;SDS011;58380;48.312;9.246;2023-02-13T18:44:21;24.47;;;10.70;;
1753;SDS011;58380;48.312;9.246;2023-02-13T18:46:46;48.20;;;12.10;;
1753;SDS011;58380;48.312;9.246;2023-02-13T18:49:12;37.97;;;12.83;;
1753;SDS011;58380;48.312;9.246;2023-02-13T18:51:38;32.60;;;12.87;;
1753;SDS011;58380;48.312;9.246;2023-02-13T18:56:29;29.50;;;11.07;;
1753;SDS011;58380;48.312;9.246;2023-02-13T18:58:54;24.93;;;8.13;;
1753;SDS011;58380;48.312;9.246;2023-02-13T19:01:20;30.83;;;8.90;;
1753;SDS011;58380;48.312;9.246;2023-02-13T19:03:47;27.92;;;8.75;;
1753;SDS011;58380;48.312;9.246;2023-02-13T19:06:15;42.03;;;9.57;;
1753;SDS011;58380;48.312;9.246;2023-02-13T19:08:45;32.17;;;8.63;;
1753;SDS011;58380;48.312;9.246;2023-02-13T19:11:12;42.13;;;9.80;;
1753;SDS011;58380;48.312;9.246;2023-02-13T19:13:41;31.60;;;9.75;;
1753;SDS011;58380;48.312;9.246;2023-02-13T19:16:12;39.95;;;10.25;;
1753;SDS011;58380;48.312;9.246;2023-02-13T19:18:42;31.30;;;9.48;;
1753;SDS011;58380;48.312;9.246;2023-02-13T19:21:13;30.85;;;10.32;;
1753;SDS011;58380;48.312;9.246;2023-02-13T19:23:40;30.02;;;9.30;;
1753;SDS011;58380;48.312;9.246;2023-02-13T19:26:06;25.02;;;9.93;;
1753;SDS011;58380;48.312;9.246;2023-02-13T19:28:37;19.85;;;8.75;;
1753;SDS011;58380;48.312;9.246;2023-02-13T19:31:04;20.40;;;9.18;;
1753;SDS011;58380;48.312;9.246;2023-02-13T19:33:32;17.02;;;8.18;;
1753;SDS011;58380;48.312;9.246;2023-02-13T19:35:59;18.60;;;9.48;;
1753;SDS011;58380;48.312;9.246;2023-02-13T19:38:26;22.83;;;8.35;;
1753;SDS011;58380;48.312;9.246;2023-02-13T19:40:52;20.67;;;8.32;;
1753;SDS011;58380;48.312;9.246;2023-02-13T19:43:19;17.70;;;7.97;;
1753;SDS011;58380;48.312;9.246;2023-02-13T19:45:45;22.95;;;8.70;;
1753;SDS011;58380;48.312;9.246;2023-02-13T19:48:10;17.97;;;7.97;;
1753;SDS011;58380;48.312;9.246;2023-02-13T19:50:36;19.87;;;9.10;;
1753;SDS011;58380;48.312;9.246;2023-02-13T19:53:03;23.73;;;8.88;;
1753;SDS011;58380;48.312;9.246;2023-02-13T19:55:29;23.90;;;9.25;;
1753;SDS011;58380;48.312;9.246;2023-02-13T19:57:55;24.15;;;9.10;;
1753;SDS011;58380;48.312;9.246;2023-02-13T20:00:21;25.27;;;8.63;;
1753;SDS011;58380;48.312;9.246;2023-02-13T20:02:47;17.58;;;8.75;;
1753;SDS011;58380;48.312;9.246;2023-02-13T20:05:12;18.15;;;8.40;;
1753;SDS011;58380;48.312;9.246;2023-02-13T20:07:39;18.77;;;8.02;;
1753;SDS011;58380;48.312;9.246;2023-02-13T20:10:05;16.43;;;8.43;;
1753;SDS011;58380;48.312;9.246;2023-02-13T20:12:33;17.17;;;8.38;;
1753;SDS011;58380;48.312;9.246;2023-02-13T20:14:59;17.83;;;8.25;;
1753;SDS011;58380;48.312;9.246;2023-02-13T20:17:24;15.93;;;7.63;;
1753;SDS011;58380;48.312;9.246;2023-02-13T20:19:50;14.53;;;7.40;;
1753;SDS011;58380;48.312;9.246;2023-02-13T20:22:16;15.05;;;7.55;;
1753;SDS011;58380;48.312;9.246;2023-02-13T20:24:43;19.17;;;8.05;;
1753;SDS011;58380;48.312;9.246;2023-02-13T20:27:11;18.13;;;8.55;;
1753;SDS011;58380;48.312;9.246;2023-02-13T20:32:02;17.70;;;8.30;;
1753;SDS011;58380;48.312;9.246;2023-02-13T20:52:35;23.60;;;8.73;;
1753;SDS011;58380;48.312;9.246;2023-02-13T20:55:00;19.67;;;9.07;;
1753;SDS011;58380;48.312;9.246;2023-02-13T20:57:27;21.20;;;9.23;;
1753;SDS011;58380;48.312;9.246;2023-02-13T20:59:52;19.63;;;8.47;;
1753;SDS011;58380;48.312;9.246;2023-02-13T21:02:18;24.90;;;9.40;;
1753;SDS011;58380;48.312;9.246;2023-02-13T21:04:44;18.83;;;8.48;;
1753;SDS011;58380;48.312;9.246;2023-02-13T21:09:36;22.70;;;9.60;;
1753;SDS011;58380;48.312;9.246;2023-02-13T21:12:02;18.60;;;8.88;;
1753;SDS011;58380;48.312;9.246;2023-02-13T21:14:28;23.90;;;10.45;;
1753;SDS011;58380;48.312;9.246;2023-02-13T21:16:54;18.90;;;9.43;;
1753;SDS011;58380;48.312;9.246;2023-02-13T21:19:19;19.60;;;9.18;;
1753;SDS011;58380;48.312;9.246;2023-02-13T21:21:45;18.87;;;8.40;;
1753;SDS011;58380;48.312;9.246;2023-02-13T21:24:15;20.58;;;9.48;;
1753;SDS011;58380;48.312;9.246;2023-02-13T21:26:46;18.73;;;9.48;;
1753;SDS011;58380;48.312;9.246;2023-02-13T21:29:16;24.20;;;10.00;;
1753;SDS011;58380;48.312;9.246;2023-02-13T21:31:42;18.95;;;8.77;;
1753;SDS011;58380;48.312;9.246;2023-02-13T21:34:14;19.58;;;9.60;;
